Resilient — WDH7917 — position and weather

sailwx.info

Track history (hours):
 
Tides and Currents Weather Stations Pressure Air Temp Water Temp Dewpoint Dewpoint Depression Visibility Wind Speed Wind Dir Waves Ship Positions

Resilient

Owner: Resilience Marine LLC, Satellite Beach, FL. More information available from US FCC via Universal Licensing System and Coast Guard Vessel Documentation Center.

Last reported at 2017-Nov-01 01:39 UTC. Time now 2017-Nov-23 05:10 UTC.
Position N 32°08' W 080°49'.
Warning: this ship's position is 22 days out of date.

Length 27 m.

Type: Pleasure craft. MMSI: 367652850.

Date/timePositionNaut miles runAvg speedWind from/ knotsBaromVisibWave heightAir tempDewpointWater temp
2017-Nov-01 01:39N 32°08' W 080°49'0 0.0
2017-Nov-01 01:21N 32°08' W 080°49'0 0.0
2017-Nov-01 00:57N 32°08' W 080°49'0 0.0
2017-Nov-01 00:15N 32°08' W 080°49'0 0.0
2017-Oct-31 23:57N 32°08' W 080°49'0 0.0
2017-Oct-31 23:27N 32°08' W 080°49'0 0.0
2017-Oct-31 22:39N 32°08' W 080°49'0 0.0
2017-Oct-31 22:21N 32°08' W 080°49'0 0.0
2017-Oct-31 21:45N 32°08' W 080°49'0 0.0
2017-Oct-31 21:27N 32°08' W 080°49'0 0.0
2017-Oct-31 20:46N 32°08' W 080°49'3 9.9
2017-Oct-31 20:30N 32°06' W 080°50'256 8.1
2017-Oct-30 12:55N 34°43' W 076°49'511.6
2017-Oct-30 12:30N 34°43' W 076°43'1 1.3
2017-Oct-30 12:00N 34°43' W 076°42'0 0.0
2017-Oct-30 11:30N 34°43' W 076°42'0 0.0
2017-Oct-30 11:00N 34°43' W 076°42'0 0.0
2017-Oct-30 10:30N 34°43' W 076°42'0 0.0
2017-Oct-30 09:57N 34°43' W 076°42'0 0.0
2017-Oct-30 09:30N 34°43' W 076°42'0 0.0
2017-Oct-30 09:00N 34°43' W 076°42'0 0.0
2017-Oct-30 08:30N 34°43' W 076°42'0 0.0
2017-Oct-30 07:54N 34°43' W 076°42'0 0.0
2017-Oct-30 07:30N 34°43' W 076°42'0 0.0
2017-Oct-30 07:00N 34°43' W 076°42'0 0.0
2017-Oct-30 06:30N 34°43' W 076°42'0 0.0
2017-Oct-30 06:00N 34°43' W 076°42'0 0.0
2017-Oct-30 05:30N 34°43' W 076°42'0 0.0
2017-Oct-30 05:00N 34°43' W 076°42'0 0.0
2017-Oct-30 04:30N 34°43' W 076°42'0 0.0
2017-Oct-30 04:00N 34°43' W 076°42'0 0.0
2017-Oct-30 03:30N 34°43' W 076°42'0 0.0
2017-Oct-30 02:57N 34°43' W 076°42'0 0.0
2017-Oct-30 02:30N 34°43' W 076°42'0 0.0
2017-Oct-30 02:00N 34°43' W 076°42'0 0.0
2017-Oct-30 01:30N 34°43' W 076°42'0 0.0
2017-Oct-30 01:00N 34°43' W 076°42'0 0.0
2017-Oct-30 00:30N 34°43' W 076°42'0 0.0
2017-Oct-30 00:00N 34°43' W 076°42'0 0.0
2017-Oct-29 23:30N 34°43' W 076°42'0 0.0
2017-Oct-29 23:00N 34°43' W 076°42'0 0.0
2017-Oct-29 22:27N 34°43' W 076°42'0 0.0
2017-Oct-29 22:00N 34°43' W 076°42'0 0.0
2017-Oct-29 21:30N 34°43' W 076°42'0 0.0
2017-Oct-29 21:00N 34°43' W 076°42'0 0.0
2017-Oct-29 20:27N 34°43' W 076°42'0 0.0
2017-Oct-29 20:00N 34°43' W 076°42'4 8.4
2017-Oct-29 19:30N 34°47' W 076°41'4 7.5
2017-Oct-29 18:59N 34°51' W 076°41'114 4.8
2017-Oct-28 19:00N 36°44' W 076°15'3 6.4
2017-Oct-28 18:30N 36°46' W 076°18'4 7.0
2017-Oct-28 18:00N 36°50' W 076°18'129 4.4
2017-Oct-27 12:25N 38°58' W 076°30'0 0.0
2017-Oct-27 11:58N 38°58' W 076°30'0 0.0
2017-Oct-27 11:28N 38°58' W 076°30'0 0.0
2017-Oct-27 10:55N 38°58' W 076°30'0 0.0
2017-Oct-27 10:28N 38°58' W 076°30'0 0.0
2017-Oct-27 09:58N 38°58' W 076°30'0 0.0
2017-Oct-27 09:28N 38°58' W 076°30'0 0.0
2017-Oct-27 08:58N 38°58' W 076°30'0 0.0
2017-Oct-27 08:28N 38°58' W 076°30'0 0.0
2017-Oct-27 07:58N 38°58' W 076°30'0 0.0
2017-Oct-27 07:28N 38°58' W 076°30'0 0.0
2017-Oct-27 06:58N 38°58' W 076°30'0 0.0
2017-Oct-27 06:28N 38°58' W 076°30'0 0.0
2017-Oct-27 05:58N 38°58' W 076°30'0 0.0
2017-Oct-27 05:28N 38°58' W 076°30'0 0.0
2017-Oct-27 04:46N 38°58' W 076°30'0 0.0
2017-Oct-27 04:28N 38°58' W 076°30'0 0.0
2017-Oct-27 03:52N 38°58' W 076°30'0 0.0
2017-Oct-27 03:28N 38°58' W 076°30'0 0.0
2017-Oct-27 02:58N 38°58' W 076°30'0 0.0
2017-Oct-27 02:28N 38°58' W 076°30'0 0.0
2017-Oct-27 01:52N 38°58' W 076°30'0 0.0
2017-Oct-27 01:28N 38°58' W 076°30'0 0.0
2017-Oct-27 00:58N 38°58' W 076°30'0 0.0
2017-Oct-27 00:28N 38°58' W 076°30'0 0.0
2017-Oct-26 23:58N 38°58' W 076°30'0 0.0
2017-Oct-26 23:28N 38°58' W 076°30'0 0.0
2017-Oct-26 22:58N 38°58' W 076°30'0 0.0
2017-Oct-26 22:25N 38°58' W 076°30'0 0.0
2017-Oct-26 21:58N 38°58' W 076°30'0 0.0
2017-Oct-26 21:28N 38°58' W 076°30'0 0.0
2017-Oct-26 20:46N 38°58' W 076°30'0 0.0
2017-Oct-26 20:28N 38°58' W 076°30'0 0.0
2017-Oct-26 19:58N 38°58' W 076°30'0 0.0
2017-Oct-26 19:28N 38°58' W 076°30'0 0.0
2017-Oct-26 18:58N 38°58' W 076°30'0 0.0
2017-Oct-26 18:28N 38°58' W 076°30'0 0.0
2017-Oct-26 17:58N 38°58' W 076°30'0 0.0
2017-Oct-26 17:28N 38°58' W 076°30'0 0.0
2017-Oct-26 16:58N 38°58' W 076°30'0 0.0
2017-Oct-26 16:28N 38°58' W 076°30'0 0.0
2017-Oct-26 15:58N 38°58' W 076°30'0 0.9
2017-Oct-26 15:26N 38°58' W 076°29'2 5.2
2017-Oct-26 15:00N 38°57' W 076°26'3 5.0
2017-Oct-26 14:30N 38°58' W 076°29'0 0.4
2017-Oct-26 13:59N 38°58' W 076°30'0 0.0
2017-Oct-26 13:29N 38°58' W 076°30'0 0.0
2017-Oct-26 12:59N 38°58' W 076°30'0 0.0
2017-Oct-26 12:26N 38°58' W 076°30'0 0.0
2017-Oct-26 11:56N 38°58' W 076°30'0 0.0
2017-Oct-26 11:29N 38°58' W 076°30'0 0.0
2017-Oct-26 10:59N 38°58' W 076°30'0 0.0
2017-Oct-26 10:29N 38°58' W 076°30'0 0.0
2017-Oct-26 09:50N 38°58' W 076°30'0 0.0
2017-Oct-26 09:29N 38°58' W 076°30'0 0.0
2017-Oct-26 08:59N 38°58' W 076°30'0 0.0
2017-Oct-26 08:26N 38°58' W 076°30'0 0.0
2017-Oct-26 07:53N 38°58' W 076°30'0 0.0
2017-Oct-26 07:29N 38°58' W 076°30'0 0.0
2017-Oct-26 06:56N 38°58' W 076°30'0 0.0
2017-Oct-26 06:29N 38°58' W 076°30'0 0.0
2017-Oct-26 05:59N 38°58' W 076°30'0 0.0
2017-Oct-26 05:29N 38°58' W 076°30'0 0.0
2017-Oct-26 04:56N 38°58' W 076°30'0 0.0
2017-Oct-26 04:26N 38°58' W 076°30'0 0.0
2017-Oct-26 03:59N 38°58' W 076°30'0 0.0
2017-Oct-26 03:29N 38°58' W 076°30'0 0.0
2017-Oct-26 02:56N 38°58' W 076°30'0 0.0
2017-Oct-26 02:29N 38°58' W 076°30'0 0.0
2017-Oct-25 16:08N 38°58' W 076°30'0 0.0
2017-Oct-25 15:56N 38°58' W 076°30'0 0.0
2017-Oct-25 15:29N 38°58' W 076°30'0 0.0
2017-Oct-25 14:59N 38°58' W 076°30'0 0.0
2017-Oct-25 14:29N 38°58' W 076°30'0 0.0
2017-Oct-25 13:56N 38°58' W 076°30'0 0.0
2017-Oct-25 13:29N 38°58' W 076°30'0 0.0
2017-Oct-25 12:56N 38°58' W 076°30'0 0.0
2017-Oct-25 12:29N 38°58' W 076°30'0 0.0
2017-Oct-25 11:53N 38°58' W 076°30'0 0.0
2017-Oct-25 11:26N 38°58' W 076°30'0 0.0
2017-Oct-25 10:56N 38°58' W 076°30'0 0.0
2017-Oct-25 10:23N 38°58' W 076°30'0 0.0
2017-Oct-25 09:59N 38°58' W 076°30'0 0.0
2017-Oct-25 09:26N 38°58' W 076°30'0 0.0
2017-Oct-25 08:59N 38°58' W 076°30'0 0.0
2017-Oct-25 08:29N 38°58' W 076°30'0 0.0
2017-Oct-25 07:59N 38°58' W 076°30'0 0.0
2017-Oct-25 07:29N 38°58' W 076°30'0 0.0
2017-Oct-25 06:59N 38°58' W 076°30'0 0.0
2017-Oct-25 06:29N 38°58' W 076°30'0 0.0
2017-Oct-25 05:59N 38°58' W 076°30'0 0.0
2017-Oct-25 05:26N 38°58' W 076°30'0 0.0
2017-Oct-25 04:56N 38°58' W 076°30'0 0.0
2017-Oct-25 04:29N 38°58' W 076°30'0 0.0
2017-Oct-25 03:56N 38°58' W 076°30'0 0.0
2017-Oct-25 03:26N 38°58' W 076°30'0 0.0
2017-Oct-25 02:59N 38°58' W 076°30'0 0.0
2017-Oct-25 02:29N 38°58' W 076°30'0 0.0
2017-Oct-25 01:56N 38°58' W 076°30'0 0.0
2017-Oct-25 01:26N 38°58' W 076°30'0 0.0
2017-Oct-25 00:56N 38°58' W 076°30'0 0.0
2017-Oct-25 00:26N 38°58' W 076°30'0 0.0
2017-Oct-24 23:59N 38°58' W 076°30'0 0.0
2017-Oct-24 23:29N 38°58' W 076°30'0 0.0
2017-Oct-24 22:59N 38°58' W 076°30'0 0.0
2017-Oct-24 22:26N 38°58' W 076°30'0 0.0
2017-Oct-24 21:56N 38°58' W 076°30'0 0.0
2017-Oct-24 21:29N 38°58' W 076°30'0 0.0
2017-Oct-24 20:59N 38°58' W 076°30'0 0.0
2017-Oct-24 20:29N 38°58' W 076°30'0 0.0
2017-Oct-24 19:59N 38°58' W 076°30'0 0.0
2017-Oct-24 19:26N 38°58' W 076°30'0 0.0
2017-Oct-24 18:56N 38°58' W 076°30'0 0.0
2017-Oct-24 18:29N 38°58' W 076°30'0 0.0
2017-Oct-24 17:53N 38°58' W 076°30'0 0.0
2017-Oct-24 17:29N 38°58' W 076°30'0 0.0
2017-Oct-24 16:59N 38°58' W 076°30'0 0.0
2017-Oct-24 16:26N 38°58' W 076°30'0 0.0
2017-Oct-24 15:56N 38°58' W 076°30'0 0.0
2017-Oct-24 15:26N 38°58' W 076°30'0 0.0
2017-Oct-24 14:59N 38°58' W 076°30'0 0.0
2017-Oct-24 14:26N 38°58' W 076°30'0 0.0
2017-Oct-24 13:50N 38°58' W 076°30'0 0.0
2017-Oct-24 13:26N 38°58' W 076°30'0 0.0
2017-Oct-24 12:56N 38°58' W 076°30'0 0.0
2017-Oct-24 12:29N 38°58' W 076°30'0 0.0
2017-Oct-24 11:56N 38°58' W 076°30'0 0.0
2017-Oct-24 11:29N 38°58' W 076°30'0 0.0
2017-Oct-24 10:56N 38°58' W 076°30'0 0.0
2017-Oct-24 10:26N 38°58' W 076°30'0 0.0
2017-Oct-24 09:53N 38°58' W 076°30'0 0.0
2017-Oct-24 09:29N 38°58' W 076°30'0 0.0
2017-Oct-24 08:56N 38°58' W 076°30'0 0.0
2017-Oct-24 08:23N 38°58' W 076°30'0 0.0
2017-Oct-24 07:59N 38°58' W 076°30'0 0.0
2017-Oct-24 07:29N 38°58' W 076°30'0 0.0
2017-Oct-24 06:59N 38°58' W 076°30'0 0.0
2017-Oct-24 06:26N 38°58' W 076°30'0 0.0
2017-Oct-24 05:56N 38°58' W 076°30'0 0.0
2017-Oct-24 05:29N 38°58' W 076°30'0 0.0
2017-Oct-24 04:56N 38°58' W 076°30'0 0.0
2017-Oct-24 04:26N 38°58' W 076°30'0 0.0
2017-Oct-24 03:59N 38°58' W 076°30'0 0.0
2017-Oct-24 03:29N 38°58' W 076°30'0 0.0
2017-Oct-24 02:59N 38°58' W 076°30'0 0.0
2017-Oct-24 02:26N 38°58' W 076°30'0 0.0
2017-Oct-24 01:59N 38°58' W 076°30'0 0.0
2017-Oct-24 01:26N 38°58' W 076°30'0 0.0
2017-Oct-24 00:56N 38°58' W 076°30'0 0.0
2017-Oct-24 00:26N 38°58' W 076°30'0 0.0
2017-Oct-23 23:59N 38°58' W 076°30'0 0.0
2017-Oct-23 23:26N 38°58' W 076°30'0 0.0
2017-Oct-23 22:59N 38°58' W 076°30'0 0.0
2017-Oct-23 22:29N 38°58' W 076°30'0 0.0
2017-Oct-23 21:59N 38°58' W 076°30'0 0.0
2017-Oct-23 21:26N 38°58' W 076°30'0 0.0
2017-Oct-23 20:59N 38°58' W 076°30'0 0.0
2017-Oct-23 20:29N 38°58' W 076°30'0 0.0
2017-Oct-23 19:56N 38°58' W 076°30'0 0.0
2017-Oct-23 19:20N 38°58' W 076°30'0 0.0
2017-Oct-23 18:59N 38°58' W 076°30'0 0.0
2017-Oct-23 18:29N 38°58' W 076°30'0 0.0
2017-Oct-23 17:59N 38°58' W 076°30'0 0.0
2017-Oct-23 17:26N 38°58' W 076°30'0 0.0
2017-Oct-23 16:56N 38°58' W 076°30'0 0.0
2017-Oct-23 16:26N 38°58' W 076°30'0 0.0
2017-Oct-23 15:56N 38°58' W 076°30'0 0.0
2017-Oct-23 15:26N 38°58' W 076°30'0 0.0
2017-Oct-23 14:56N 38°58' W 076°30'0 0.0
2017-Oct-23 14:29N 38°58' W 076°30'0 0.0
2017-Oct-23 13:59N 38°58' W 076°30'0 0.0
2017-Oct-23 13:26N 38°58' W 076°30'0 0.0
2017-Oct-23 12:56N 38°58' W 076°30'0 0.0
2017-Oct-23 12:29N 38°58' W 076°30'0 0.0
2017-Oct-23 11:59N 38°58' W 076°30'0 0.0
2017-Oct-23 11:26N 38°58' W 076°30'0 0.0
2017-Oct-23 10:59N 38°58' W 076°30'0 0.0
2017-Oct-23 10:26N 38°58' W 076°30'0 0.0
2017-Oct-23 09:56N 38°58' W 076°30'0 0.0
2017-Oct-23 09:29N 38°58' W 076°30'0 0.0
2017-Oct-23 08:56N 38°58' W 076°30'0 0.0
2017-Oct-23 08:20N 38°58' W 076°30'0 0.0
2017-Oct-23 07:56N 38°58' W 076°30'0 0.0
2017-Oct-23 07:29N 38°58' W 076°30'0 0.0
2017-Oct-23 06:56N 38°58' W 076°30'0 0.0
2017-Oct-23 06:26N 38°58' W 076°30'0 0.0
2017-Oct-23 05:50N 38°58' W 076°30'0 0.0
2017-Oct-23 05:29N 38°58' W 076°30'0 0.0
2017-Oct-23 04:50N 38°58' W 076°30'0 0.0
2017-Oct-23 04:29N 38°58' W 076°30'0 0.0
2017-Oct-23 03:56N 38°58' W 076°30'0 0.0
2017-Oct-23 03:29N 38°58' W 076°30'0 0.0
2017-Oct-23 02:59N 38°58' W 076°30'0 0.0
2017-Oct-23 02:26N 38°58' W 076°30'0 0.0
2017-Oct-23 01:59N 38°58' W 076°30'0 0.0
2017-Oct-23 01:29N 38°58' W 076°30'0 0.0
2017-Oct-23 00:56N 38°58' W 076°30'0 0.0
2017-Oct-23 00:29N 38°58' W 076°30'0 0.0
2017-Oct-22 23:56N 38°58' W 076°30'0 0.0
2017-Oct-22 23:26N 38°58' W 076°30'0 0.0
2017-Oct-22 22:56N 38°58' W 076°30'0 0.0
2017-Oct-22 22:29N 38°58' W 076°30'0 0.0
2017-Oct-22 21:59N 38°58' W 076°30'0 0.0
2017-Oct-22 21:26N 38°58' W 076°30'0 0.0
2017-Oct-22 20:56N 38°58' W 076°30'0 0.0
2017-Oct-22 20:26N 38°58' W 076°30'0 0.0
2017-Oct-22 19:59N 38°58' W 076°30'0 0.0
2017-Oct-22 19:26N 38°58' W 076°30'0 0.0
2017-Oct-22 18:56N 38°58' W 076°30'0 0.0
2017-Oct-22 18:29N 38°58' W 076°30'0 0.0
2017-Oct-22 17:50N 38°58' W 076°30'0 0.0
2017-Oct-22 17:29N 38°58' W 076°30'0 0.0
2017-Oct-22 16:56N 38°58' W 076°30'0 0.0
2017-Oct-22 16:26N 38°58' W 076°30'0 0.0
2017-Oct-22 15:59N 38°58' W 076°30'0 0.0
2017-Oct-22 15:26N 38°58' W 076°30'0 0.0
2017-Oct-22 14:50N 38°58' W 076°30'0 0.0
2017-Oct-22 14:29N 38°58' W 076°30'0 0.0
2017-Oct-22 13:59N 38°58' W 076°30'0 0.0
2017-Oct-22 13:23N 38°58' W 076°30'0 0.0
2017-Oct-22 12:50N 38°58' W 076°30'0 0.0
2017-Oct-22 12:29N 38°58' W 076°30'0 0.0
2017-Oct-22 11:50N 38°58' W 076°30'0 0.0
2017-Oct-22 11:29N 38°58' W 076°30'0 0.0
2017-Oct-22 10:59N 38°58' W 076°30'0 0.0
2017-Oct-22 10:29N 38°58' W 076°30'0 0.0
2017-Oct-22 09:59N 38°58' W 076°30'0 0.0
2017-Oct-22 09:26N 38°58' W 076°30'0 0.0
2017-Oct-22 08:56N 38°58' W 076°30'0 0.0
2017-Oct-22 08:29N 38°58' W 076°30'0 0.0
2017-Oct-22 07:53N 38°58' W 076°30'0 0.0
2017-Oct-22 07:29N 38°58' W 076°30'0 0.0
2017-Oct-22 06:56N 38°58' W 076°30'0 0.0
2017-Oct-22 06:23N 38°58' W 076°30'0 0.0
2017-Oct-22 05:56N 38°58' W 076°30'0 0.0
2017-Oct-22 05:29N 38°58' W 076°30'0 0.0
2017-Oct-22 04:56N 38°58' W 076°30'0 0.0
2017-Oct-22 04:29N 38°58' W 076°30'0 0.0
2017-Oct-22 03:59N 38°58' W 076°30'0 0.0
2017-Oct-22 03:26N 38°58' W 076°30'0 0.0
2017-Oct-22 02:56N 38°58' W 076°30'0 0.0
2017-Oct-22 02:20N 38°58' W 076°30'0 0.0
2017-Oct-22 01:56N 38°58' W 076°30'  
Track history (hours):
 
Tides and Currents Weather Stations Pressure Air Temp Water Temp Dewpoint Dewpoint Depression Visibility Wind Speed Wind Dir Waves Ship Positions

Resilient

Owner: Resilience Marine LLC, Satellite Beach, FL. More information available from US FCC via Universal Licensing System and Coast Guard Vessel Documentation Center.

Last reported at 2017-Nov-01 01:39 UTC. Time now 2017-Nov-23 05:10 UTC.
Position N 32°08' W 080°49'.
Warning: this ship's position is 22 days out of date.

Length 27 m.

Type: Pleasure craft. MMSI: 367652850.

Date/timePositionNaut miles runAvg speedWind from/ knotsBaromVisibWave heightAir tempDewpointWater temp
2017-Nov-01 01:39N 32°08' W 080°49'0 0.0
2017-Nov-01 01:21N 32°08' W 080°49'0 0.0
2017-Nov-01 00:57N 32°08' W 080°49'0 0.0
2017-Nov-01 00:15N 32°08' W 080°49'0 0.0
2017-Oct-31 23:57N 32°08' W 080°49'0 0.0
2017-Oct-31 23:27N 32°08' W 080°49'0 0.0
2017-Oct-31 22:39N 32°08' W 080°49'0 0.0
2017-Oct-31 22:21N 32°08' W 080°49'0 0.0
2017-Oct-31 21:45N 32°08' W 080°49'0 0.0
2017-Oct-31 21:27N 32°08' W 080°49'0 0.0
2017-Oct-31 20:46N 32°08' W 080°49'3 9.9
2017-Oct-31 20:30N 32°06' W 080°50'256 8.1
2017-Oct-30 12:55N 34°43' W 076°49'511.6
2017-Oct-30 12:30N 34°43' W 076°43'1 1.3
2017-Oct-30 12:00N 34°43' W 076°42'0 0.0
2017-Oct-30 11:30N 34°43' W 076°42'0 0.0
2017-Oct-30 11:00N 34°43' W 076°42'0 0.0
2017-Oct-30 10:30N 34°43' W 076°42'0 0.0
2017-Oct-30 09:57N 34°43' W 076°42'0 0.0
2017-Oct-30 09:30N 34°43' W 076°42'0 0.0
2017-Oct-30 09:00N 34°43' W 076°42'0 0.0
2017-Oct-30 08:30N 34°43' W 076°42'0 0.0
2017-Oct-30 07:54N 34°43' W 076°42'0 0.0
2017-Oct-30 07:30N 34°43' W 076°42'0 0.0
2017-Oct-30 07:00N 34°43' W 076°42'0 0.0
2017-Oct-30 06:30N 34°43' W 076°42'0 0.0
2017-Oct-30 06:00N 34°43' W 076°42'0 0.0
2017-Oct-30 05:30N 34°43' W 076°42'0 0.0
2017-Oct-30 05:00N 34°43' W 076°42'0 0.0
2017-Oct-30 04:30N 34°43' W 076°42'0 0.0
2017-Oct-30 04:00N 34°43' W 076°42'0 0.0
2017-Oct-30 03:30N 34°43' W 076°42'0 0.0
2017-Oct-30 02:57N 34°43' W 076°42'0 0.0
2017-Oct-30 02:30N 34°43' W 076°42'0 0.0
2017-Oct-30 02:00N 34°43' W 076°42'0 0.0
2017-Oct-30 01:30N 34°43' W 076°42'0 0.0
2017-Oct-30 01:00N 34°43' W 076°42'0 0.0
2017-Oct-30 00:30N 34°43' W 076°42'0 0.0
2017-Oct-30 00:00N 34°43' W 076°42'0 0.0
2017-Oct-29 23:30N 34°43' W 076°42'0 0.0
2017-Oct-29 23:00N 34°43' W 076°42'0 0.0
2017-Oct-29 22:27N 34°43' W 076°42'0 0.0
2017-Oct-29 22:00N 34°43' W 076°42'0 0.0
2017-Oct-29 21:30N 34°43' W 076°42'0 0.0
2017-Oct-29 21:00N 34°43' W 076°42'0 0.0
2017-Oct-29 20:27N 34°43' W 076°42'0 0.0
2017-Oct-29 20:00N 34°43' W 076°42'4 8.4
2017-Oct-29 19:30N 34°47' W 076°41'4 7.5
2017-Oct-29 18:59N 34°51' W 076°41'114 4.8
2017-Oct-28 19:00N 36°44' W 076°15'3 6.4
2017-Oct-28 18:30N 36°46' W 076°18'4 7.0
2017-Oct-28 18:00N 36°50' W 076°18'129 4.4
2017-Oct-27 12:25N 38°58' W 076°30'0 0.0
2017-Oct-27 11:58N 38°58' W 076°30'0 0.0
2017-Oct-27 11:28N 38°58' W 076°30'0 0.0
2017-Oct-27 10:55N 38°58' W 076°30'0 0.0
2017-Oct-27 10:28N 38°58' W 076°30'0 0.0
2017-Oct-27 09:58N 38°58' W 076°30'0 0.0
2017-Oct-27 09:28N 38°58' W 076°30'0 0.0
2017-Oct-27 08:58N 38°58' W 076°30'0 0.0
2017-Oct-27 08:28N 38°58' W 076°30'0 0.0
2017-Oct-27 07:58N 38°58' W 076°30'0 0.0
2017-Oct-27 07:28N 38°58' W 076°30'0 0.0
2017-Oct-27 06:58N 38°58' W 076°30'0 0.0
2017-Oct-27 06:28N 38°58' W 076°30'0 0.0
2017-Oct-27 05:58N 38°58' W 076°30'0 0.0
2017-Oct-27 05:28N 38°58' W 076°30'0 0.0
2017-Oct-27 04:46N 38°58' W 076°30'0 0.0
2017-Oct-27 04:28N 38°58' W 076°30'0 0.0
2017-Oct-27 03:52N 38°58' W 076°30'0 0.0
2017-Oct-27 03:28N 38°58' W 076°30'0 0.0
2017-Oct-27 02:58N 38°58' W 076°30'0 0.0
2017-Oct-27 02:28N 38°58' W 076°30'0 0.0
2017-Oct-27 01:52N 38°58' W 076°30'0 0.0
2017-Oct-27 01:28N 38°58' W 076°30'0 0.0
2017-Oct-27 00:58N 38°58' W 076°30'0 0.0
2017-Oct-27 00:28N 38°58' W 076°30'0 0.0
2017-Oct-26 23:58N 38°58' W 076°30'0 0.0
2017-Oct-26 23:28N 38°58' W 076°30'0 0.0
2017-Oct-26 22:58N 38°58' W 076°30'0 0.0
2017-Oct-26 22:25N 38°58' W 076°30'0 0.0
2017-Oct-26 21:58N 38°58' W 076°30'0 0.0
2017-Oct-26 21:28N 38°58' W 076°30'0 0.0
2017-Oct-26 20:46N 38°58' W 076°30'0 0.0
2017-Oct-26 20:28N 38°58' W 076°30'0 0.0
2017-Oct-26 19:58N 38°58' W 076°30'0 0.0
2017-Oct-26 19:28N 38°58' W 076°30'0 0.0
2017-Oct-26 18:58N 38°58' W 076°30'0 0.0
2017-Oct-26 18:28N 38°58' W 076°30'0 0.0
2017-Oct-26 17:58N 38°58' W 076°30'0 0.0
2017-Oct-26 17:28N 38°58' W 076°30'0 0.0
2017-Oct-26 16:58N 38°58' W 076°30'0 0.0
2017-Oct-26 16:28N 38°58' W 076°30'0 0.0
2017-Oct-26 15:58N 38°58' W 076°30'0 0.9
2017-Oct-26 15:26N 38°58' W 076°29'2 5.2
2017-Oct-26 15:00N 38°57' W 076°26'3 5.0
2017-Oct-26 14:30N 38°58' W 076°29'0 0.4
2017-Oct-26 13:59N 38°58' W 076°30'0 0.0
2017-Oct-26 13:29N 38°58' W 076°30'0 0.0
2017-Oct-26 12:59N 38°58' W 076°30'0 0.0
2017-Oct-26 12:26N 38°58' W 076°30'0 0.0
2017-Oct-26 11:56N 38°58' W 076°30'0 0.0
2017-Oct-26 11:29N 38°58' W 076°30'0 0.0
2017-Oct-26 10:59N 38°58' W 076°30'0 0.0
2017-Oct-26 10:29N 38°58' W 076°30'0 0.0
2017-Oct-26 09:50N 38°58' W 076°30'0 0.0
2017-Oct-26 09:29N 38°58' W 076°30'0 0.0
2017-Oct-26 08:59N 38°58' W 076°30'0 0.0
2017-Oct-26 08:26N 38°58' W 076°30'0 0.0
2017-Oct-26 07:53N 38°58' W 076°30'0 0.0
2017-Oct-26 07:29N 38°58' W 076°30'0 0.0
2017-Oct-26 06:56N 38°58' W 076°30'0 0.0
2017-Oct-26 06:29N 38°58' W 076°30'0 0.0
2017-Oct-26 05:59N 38°58' W 076°30'0 0.0
2017-Oct-26 05:29N 38°58' W 076°30'0 0.0
2017-Oct-26 04:56N 38°58' W 076°30'0 0.0
2017-Oct-26 04:26N 38°58' W 076°30'0 0.0
2017-Oct-26 03:59N 38°58' W 076°30'0 0.0
2017-Oct-26 03:29N 38°58' W 076°30'0 0.0
2017-Oct-26 02:56N 38°58' W 076°30'0 0.0
2017-Oct-26 02:29N 38°58' W 076°30'0 0.0
2017-Oct-25 16:08N 38°58' W 076°30'0 0.0
2017-Oct-25 15:56N 38°58' W 076°30'0 0.0
2017-Oct-25 15:29N 38°58' W 076°30'0 0.0
2017-Oct-25 14:59N 38°58' W 076°30'0 0.0
2017-Oct-25 14:29N 38°58' W 076°30'0 0.0
2017-Oct-25 13:56N 38°58' W 076°30'0 0.0
2017-Oct-25 13:29N 38°58' W 076°30'0 0.0
2017-Oct-25 12:56N 38°58' W 076°30'0 0.0
2017-Oct-25 12:29N 38°58' W 076°30'0 0.0
2017-Oct-25 11:53N 38°58' W 076°30'0 0.0
2017-Oct-25 11:26N 38°58' W 076°30'0 0.0
2017-Oct-25 10:56N 38°58' W 076°30'0 0.0
2017-Oct-25 10:23N 38°58' W 076°30'0 0.0
2017-Oct-25 09:59N 38°58' W 076°30'0 0.0
2017-Oct-25 09:26N 38°58' W 076°30'0 0.0
2017-Oct-25 08:59N 38°58' W 076°30'0 0.0
2017-Oct-25 08:29N 38°58' W 076°30'0 0.0
2017-Oct-25 07:59N 38°58' W 076°30'0 0.0
2017-Oct-25 07:29N 38°58' W 076°30'0 0.0
2017-Oct-25 06:59N 38°58' W 076°30'0 0.0
2017-Oct-25 06:29N 38°58' W 076°30'0 0.0
2017-Oct-25 05:59N 38°58' W 076°30'0 0.0
2017-Oct-25 05:26N 38°58' W 076°30'0 0.0
2017-Oct-25 04:56N 38°58' W 076°30'0 0.0
2017-Oct-25 04:29N 38°58' W 076°30'0 0.0
2017-Oct-25 03:56N 38°58' W 076°30'0 0.0
2017-Oct-25 03:26N 38°58' W 076°30'0 0.0
2017-Oct-25 02:59N 38°58' W 076°30'0 0.0
2017-Oct-25 02:29N 38°58' W 076°30'0 0.0
2017-Oct-25 01:56N 38°58' W 076°30'0 0.0
2017-Oct-25 01:26N 38°58' W 076°30'0 0.0
2017-Oct-25 00:56N 38°58' W 076°30'0 0.0
2017-Oct-25 00:26N 38°58' W 076°30'0 0.0
2017-Oct-24 23:59N 38°58' W 076°30'0 0.0
2017-Oct-24 23:29N 38°58' W 076°30'0 0.0
2017-Oct-24 22:59N 38°58' W 076°30'0 0.0
2017-Oct-24 22:26N 38°58' W 076°30'0 0.0
2017-Oct-24 21:56N 38°58' W 076°30'0 0.0
2017-Oct-24 21:29N 38°58' W 076°30'0 0.0
2017-Oct-24 20:59N 38°58' W 076°30'0 0.0
2017-Oct-24 20:29N 38°58' W 076°30'0 0.0
2017-Oct-24 19:59N 38°58' W 076°30'0 0.0
2017-Oct-24 19:26N 38°58' W 076°30'0 0.0
2017-Oct-24 18:56N 38°58' W 076°30'0 0.0
2017-Oct-24 18:29N 38°58' W 076°30'0 0.0
2017-Oct-24 17:53N 38°58' W 076°30'0 0.0
2017-Oct-24 17:29N 38°58' W 076°30'0 0.0
2017-Oct-24 16:59N 38°58' W 076°30'0 0.0
2017-Oct-24 16:26N 38°58' W 076°30'0 0.0
2017-Oct-24 15:56N 38°58' W 076°30'0 0.0
2017-Oct-24 15:26N 38°58' W 076°30'0 0.0
2017-Oct-24 14:59N 38°58' W 076°30'0 0.0
2017-Oct-24 14:26N 38°58' W 076°30'0 0.0
2017-Oct-24 13:50N 38°58' W 076°30'0 0.0
2017-Oct-24 13:26N 38°58' W 076°30'0 0.0
2017-Oct-24 12:56N 38°58' W 076°30'0 0.0
2017-Oct-24 12:29N 38°58' W 076°30'0 0.0
2017-Oct-24 11:56N 38°58' W 076°30'0 0.0
2017-Oct-24 11:29N 38°58' W 076°30'0 0.0
2017-Oct-24 10:56N 38°58' W 076°30'0 0.0
2017-Oct-24 10:26N 38°58' W 076°30'0 0.0
2017-Oct-24 09:53N 38°58' W 076°30'0 0.0
2017-Oct-24 09:29N 38°58' W 076°30'0 0.0
2017-Oct-24 08:56N 38°58' W 076°30'0 0.0
2017-Oct-24 08:23N 38°58' W 076°30'0 0.0
2017-Oct-24 07:59N 38°58' W 076°30'0 0.0
2017-Oct-24 07:29N 38°58' W 076°30'0 0.0
2017-Oct-24 06:59N 38°58' W 076°30'0 0.0
2017-Oct-24 06:26N 38°58' W 076°30'0 0.0
2017-Oct-24 05:56N 38°58' W 076°30'0 0.0
2017-Oct-24 05:29N 38°58' W 076°30'0 0.0
2017-Oct-24 04:56N 38°58' W 076°30'0 0.0
2017-Oct-24 04:26N 38°58' W 076°30'0 0.0
2017-Oct-24 03:59N 38°58' W 076°30'0 0.0
2017-Oct-24 03:29N 38°58' W 076°30'0 0.0
2017-Oct-24 02:59N 38°58' W 076°30'0 0.0
2017-Oct-24 02:26N 38°58' W 076°30'0 0.0
2017-Oct-24 01:59N 38°58' W 076°30'0 0.0
2017-Oct-24 01:26N 38°58' W 076°30'0 0.0
2017-Oct-24 00:56N 38°58' W 076°30'0 0.0
2017-Oct-24 00:26N 38°58' W 076°30'0 0.0
2017-Oct-23 23:59N 38°58' W 076°30'0 0.0
2017-Oct-23 23:26N 38°58' W 076°30'0 0.0
2017-Oct-23 22:59N 38°58' W 076°30'0 0.0
2017-Oct-23 22:29N 38°58' W 076°30'0 0.0
2017-Oct-23 21:59N 38°58' W 076°30'0 0.0
2017-Oct-23 21:26N 38°58' W 076°30'0 0.0
2017-Oct-23 20:59N 38°58' W 076°30'0 0.0
2017-Oct-23 20:29N 38°58' W 076°30'0 0.0
2017-Oct-23 19:56N 38°58' W 076°30'0 0.0
2017-Oct-23 19:20N 38°58' W 076°30'0 0.0
2017-Oct-23 18:59N 38°58' W 076°30'0 0.0
2017-Oct-23 18:29N 38°58' W 076°30'0 0.0
2017-Oct-23 17:59N 38°58' W 076°30'0 0.0
2017-Oct-23 17:26N 38°58' W 076°30'0 0.0
2017-Oct-23 16:56N 38°58' W 076°30'0 0.0
2017-Oct-23 16:26N 38°58' W 076°30'0 0.0
2017-Oct-23 15:56N 38°58' W 076°30'0 0.0
2017-Oct-23 15:26N 38°58' W 076°30'0 0.0
2017-Oct-23 14:56N 38°58' W 076°30'0 0.0
2017-Oct-23 14:29N 38°58' W 076°30'0 0.0
2017-Oct-23 13:59N 38°58' W 076°30'0 0.0
2017-Oct-23 13:26N 38°58' W 076°30'0 0.0
2017-Oct-23 12:56N 38°58' W 076°30'0 0.0
2017-Oct-23 12:29N 38°58' W 076°30'0 0.0
2017-Oct-23 11:59N 38°58' W 076°30'0 0.0
2017-Oct-23 11:26N 38°58' W 076°30'0 0.0
2017-Oct-23 10:59N 38°58' W 076°30'0 0.0
2017-Oct-23 10:26N 38°58' W 076°30'0 0.0
2017-Oct-23 09:56N 38°58' W 076°30'0 0.0
2017-Oct-23 09:29N 38°58' W 076°30'0 0.0
2017-Oct-23 08:56N 38°58' W 076°30'0 0.0
2017-Oct-23 08:20N 38°58' W 076°30'0 0.0
2017-Oct-23 07:56N 38°58' W 076°30'0 0.0
2017-Oct-23 07:29N 38°58' W 076°30'0 0.0
2017-Oct-23 06:56N 38°58' W 076°30'0 0.0
2017-Oct-23 06:26N 38°58' W 076°30'0 0.0
2017-Oct-23 05:50N 38°58' W 076°30'0 0.0
2017-Oct-23 05:29N 38°58' W 076°30'0 0.0
2017-Oct-23 04:50N 38°58' W 076°30'0 0.0
2017-Oct-23 04:29N 38°58' W 076°30'0 0.0
2017-Oct-23 03:56N 38°58' W 076°30'0 0.0
2017-Oct-23 03:29N 38°58' W 076°30'0 0.0
2017-Oct-23 02:59N 38°58' W 076°30'0 0.0
2017-Oct-23 02:26N 38°58' W 076°30'0 0.0
2017-Oct-23 01:59N 38°58' W 076°30'0 0.0
2017-Oct-23 01:29N 38°58' W 076°30'0 0.0
2017-Oct-23 00:56N 38°58' W 076°30'0 0.0
2017-Oct-23 00:29N 38°58' W 076°30'0 0.0
2017-Oct-22 23:56N 38°58' W 076°30'0 0.0
2017-Oct-22 23:26N 38°58' W 076°30'0 0.0
2017-Oct-22 22:56N 38°58' W 076°30'0 0.0
2017-Oct-22 22:29N 38°58' W 076°30'0 0.0
2017-Oct-22 21:59N 38°58' W 076°30'0 0.0
2017-Oct-22 21:26N 38°58' W 076°30'0 0.0
2017-Oct-22 20:56N 38°58' W 076°30'0 0.0
2017-Oct-22 20:26N 38°58' W 076°30'0 0.0
2017-Oct-22 19:59N 38°58' W 076°30'0 0.0
2017-Oct-22 19:26N 38°58' W 076°30'0 0.0
2017-Oct-22 18:56N 38°58' W 076°30'0 0.0
2017-Oct-22 18:29N 38°58' W 076°30'0 0.0
2017-Oct-22 17:50N 38°58' W 076°30'0 0.0
2017-Oct-22 17:29N 38°58' W 076°30'0 0.0
2017-Oct-22 16:56N 38°58' W 076°30'0 0.0
2017-Oct-22 16:26N 38°58' W 076°30'0 0.0
2017-Oct-22 15:59N 38°58' W 076°30'0 0.0
2017-Oct-22 15:26N 38°58' W 076°30'0 0.0
2017-Oct-22 14:50N 38°58' W 076°30'0 0.0
2017-Oct-22 14:29N 38°58' W 076°30'0 0.0
2017-Oct-22 13:59N 38°58' W 076°30'0 0.0
2017-Oct-22 13:23N 38°58' W 076°30'0 0.0
2017-Oct-22 12:50N 38°58' W 076°30'0 0.0
2017-Oct-22 12:29N 38°58' W 076°30'0 0.0
2017-Oct-22 11:50N 38°58' W 076°30'0 0.0
2017-Oct-22 11:29N 38°58' W 076°30'0 0.0
2017-Oct-22 10:59N 38°58' W 076°30'0 0.0
2017-Oct-22 10:29N 38°58' W 076°30'0 0.0
2017-Oct-22 09:59N 38°58' W 076°30'0 0.0
2017-Oct-22 09:26N 38°58' W 076°30'0 0.0
2017-Oct-22 08:56N 38°58' W 076°30'0 0.0
2017-Oct-22 08:29N 38°58' W 076°30'0 0.0
2017-Oct-22 07:53N 38°58' W 076°30'0 0.0
2017-Oct-22 07:29N 38°58' W 076°30'0 0.0
2017-Oct-22 06:56N 38°58' W 076°30'0 0.0
2017-Oct-22 06:23N 38°58' W 076°30'0 0.0
2017-Oct-22 05:56N 38°58' W 076°30'0 0.0
2017-Oct-22 05:29N 38°58' W 076°30'0 0.0
2017-Oct-22 04:56N 38°58' W 076°30'0 0.0
2017-Oct-22 04:29N 38°58' W 076°30'0 0.0
2017-Oct-22 03:59N 38°58' W 076°30'0 0.0
2017-Oct-22 03:26N 38°58' W 076°30'0 0.0
2017-Oct-22 02:56N 38°58' W 076°30'0 0.0
2017-Oct-22 02:20N 38°58' W 076°30'0 0.0
2017-Oct-22 01:56N 38°58' W 076°30'  

Dump ship's entire track history